Rochester, NY (14609)

8:56 PM EDT on September 04, 2015 (GMT -0400)
Laurelton Area | | Change Station
CLOSE
Current Station
Personal Weather Station
Location: Rochester, NY
Elevation: 469 ft
Nearby Weather Stations

Elev 469 ft 43.17 °N, 77.55 °W | Updated 60 seconds ago

Clear
Clear
72.6 °F
Feels Like 74 °F
N
0.0
Wind Variable Wind from NE
Gusts 14.0 mph

Today
High -- | Low -- °F
--% Chance of Precip.
Yesterday
High -- | Low -- °F
Precip. -- in
6:37 AM 7:40 PM
Waning Gibbous, 54% visible
Pressure 30.13 in
Visibility 10.0 miles
Clouds Few 20000 ft
Heat Index 74 °F
Dew Point 63 °F
Humidity 73%
Rainfall 0.00 in
Snow Depth Not available.
UV 0 out of 12
Pollen 9.80 out of 12
Air Quality Not available.
Flu Activity Not available.
METAR KROC 042354Z 08007KT 10SM FEW200 23/15 A3013 RMK AO2 SLP201 T02330150 10278 20233 53009
Pressure 30.13 in
Visibility 10.0 miles
Clouds Few 20000 ft
Heat Index 74 °F
Dew Point 63 °F
Humidity 73%
Rainfall 0.00 in
Snow Depth Not available.
UV 0 out of 12
Pollen 9.80 out of 12
Air Quality Not available.
Flu Activity Not available.
METAR KROC 042354Z 08007KT 10SM FEW200 23/15 A3013 RMK AO2 SLP201 T02330150 10278 20233 53009

10-Day Weather Forecast

×

Almanac

Astronomy

Sep. 04, 2015 Rise Set
Actual Time
Civil Twilight
Nautical Twilight
Astronomical Twilight
Moon
Length of Visible Light
Length of Day
Tomorrow will be .
, % of the Moon is Illuminated

Today's Extremes

State Highs State Lows

Community

WunderPhotos

Upload Photos

1,852,367 photos uploaded!

WunderBlogs® & News

Nearby

Air Quality

  Air Quality AQ Index Pollutant
Not available.

Snow Depth

Station Depth Elevation

Earthquake Activity

City Distance Mag. Time & Date
Minimum magnitude displayed is 2.5.

Coastal Water Temperatures

Place Temperature

Stations

Nearby Weather Stations

Station Location Temp. Windchill Dew Point Humidity Wind Precip. Elev Updated Type